Аэропорт: Днепропетровск. Днепропетровск

ICAO: UKDD

METAR:
2019-12-12 10:30:00
UKDD 121030Z 10006MPS 2700 BR OVC004 01/M00 Q1019 R08/210260 NOSIG
METAR:
2019-12-12 05:03:00
TAF UKDD 120503Z 1206/1306 09007MPS 1100 BR OVC003 TX04/1212Z TN00/1303Z TEMPO 1206/1208 0200 FG VV001 BECMG 1208/1210 6000 NSW BKN007 TEMPO 1218/1306 3100 -SHRASN BR BKN004 BKN015CB